createdAt,value
2023-03-30T00:00:18.268Z,10.93
2023-03-30T00:02:44.293Z,8.03
2023-03-30T00:05:06.400Z,7.07
2023-03-30T00:07:27.642Z,9.80
2023-03-30T00:09:48.899Z,7.57
2023-03-30T00:12:10.361Z,6.63
2023-03-30T00:14:40.380Z,11.17
2023-03-30T00:17:02.030Z,7.27
2023-03-30T00:19:23.186Z,6.47
2023-03-30T00:21:45.434Z,9.67
2023-03-30T00:24:06.727Z,7.07
2023-03-30T00:26:28.518Z,7.57
2023-03-30T00:28:49.473Z,8.47
2023-03-30T00:31:15.164Z,8.67
2023-03-30T00:33:45.804Z,10.23
2023-03-30T00:36:09.301Z,7.53
2023-03-30T00:38:30.714Z,6.83
2023-03-30T00:40:52.583Z,8.20
2023-03-30T00:43:13.955Z,7.80
2023-03-30T00:45:35.784Z,9.43
2023-03-30T00:48:01.236Z,9.40
2023-03-30T00:50:23.250Z,6.67
2023-03-30T00:52:46.255Z,6.47
2023-03-30T00:55:08.798Z,8.00
2023-03-30T00:57:31.134Z,11.23
2023-03-30T00:59:53.526Z,8.90
2023-03-30T01:02:15.499Z,9.20
2023-03-30T01:04:38.971Z,7.23
2023-03-30T01:07:00.145Z,6.87
2023-03-30T01:09:22.730Z,9.20
2023-03-30T01:11:44.452Z,8.80
2023-03-30T01:14:07.069Z,7.13
2023-03-30T01:16:30.419Z,8.97
2023-03-30T01:18:56.189Z,7.03
2023-03-30T01:21:32.447Z,7.33
2023-03-30T01:24:03.946Z,7.83
2023-03-30T01:26:36.722Z,9.70
2023-03-30T01:29:00.399Z,10.07
2023-03-30T01:31:30.501Z,8.03
2023-03-30T01:34:01.214Z,8.97
2023-03-30T01:36:41.762Z,8.67
2023-03-30T01:39:13.294Z,9.30
2023-03-30T01:41:38.389Z,9.50
2023-03-30T01:44:03.210Z,8.73
2023-03-30T01:46:30.734Z,7.30
2023-03-30T01:48:57.282Z,7.17
2023-03-30T01:51:21.501Z,7.97
2023-03-30T01:53:46.120Z,7.90
2023-03-30T01:56:13.326Z,7.77
2023-03-30T01:58:37.030Z,9.07
2023-03-30T02:00:59.943Z,7.93
2023-03-30T02:03:23.453Z,7.90
2023-03-30T02:05:46.735Z,8.60
2023-03-30T02:08:09.731Z,5.93
2023-03-30T02:10:33.707Z,7.80
2023-03-30T02:12:57.544Z,13.03
2023-03-30T02:15:19.818Z,9.43
2023-03-30T02:17:42.317Z,9.67
2023-03-30T02:20:07.343Z,10.27
2023-03-30T02:22:29.589Z,10.20
2023-03-30T02:24:53.845Z,10.47
2023-03-30T02:27:15.510Z,8.27
2023-03-30T02:29:40.377Z,7.67
2023-03-30T02:32:01.951Z,15.20
2023-03-30T02:34:29.077Z,7.23
2023-03-30T02:37:10.007Z,8.43
2023-03-30T02:39:35.957Z,9.80
2023-03-30T02:42:11.152Z,8.37
2023-03-30T02:44:38.758Z,9.33
2023-03-30T02:47:06.023Z,11.20
2023-03-30T02:49:31.622Z,11.10
2023-03-30T02:51:53.935Z,11.53
2023-03-30T02:54:22.589Z,9.70
2023-03-30T02:56:46.855Z,12.43
2023-03-30T02:59:12.968Z,12.07
2023-03-30T03:01:36.437Z,8.67
2023-03-30T03:04:01.859Z,12.93
2023-03-30T03:06:23.838Z,13.30
2023-03-30T03:08:47.782Z,12.17
2023-03-30T03:11:09.208Z,13.53
2023-03-30T03:13:32.046Z,13.10
2023-03-30T03:15:56.057Z,14.17
2023-03-30T03:18:17.163Z,13.93
2023-03-30T03:20:40.321Z,11.17
2023-03-30T03:23:01.483Z,16.80
2023-03-30T03:25:22.523Z,11.40
2023-03-30T03:27:43.946Z,14.03
2023-03-30T03:30:05.702Z,14.97
2023-03-30T03:32:27.070Z,16.13
2023-03-30T03:34:48.470Z,11.23
2023-03-30T03:37:11.257Z,12.10
2023-03-30T03:39:32.941Z,10.10
2023-03-30T03:41:54.318Z,13.20
2023-03-30T03:44:16.616Z,13.00
2023-03-30T03:46:38.115Z,13.10
2023-03-30T03:48:59.622Z,14.40
2023-03-30T03:51:20.854Z,10.37
2023-03-30T03:53:43.421Z,9.33
2023-03-30T03:56:04.834Z,12.37
2023-03-30T03:58:26.466Z,12.13
2023-03-30T04:00:48.060Z,15.37
2023-03-30T04:03:09.694Z,10.50
2023-03-30T04:05:33.061Z,12.47
2023-03-30T04:07:56.437Z,9.77
2023-03-30T04:10:19.260Z,12.53
2023-03-30T04:12:40.645Z,11.87
2023-03-30T04:15:02.199Z,9.70
2023-03-30T04:17:24.210Z,13.60
2023-03-30T04:19:45.778Z,8.20
2023-03-30T04:22:06.967Z,12.20
2023-03-30T04:24:29.820Z,10.23
2023-03-30T04:26:53.800Z,8.63
2023-03-30T04:29:20.596Z,9.10
2023-03-30T04:31:42.333Z,11.63
2023-03-30T04:34:05.080Z,9.97
2023-03-30T04:36:25.942Z,13.53
2023-03-30T04:38:58.858Z,8.90
2023-03-30T04:41:20.639Z,9.37
2023-03-30T04:43:43.247Z,10.20
2023-03-30T04:46:04.371Z,10.50
2023-03-30T04:48:25.432Z,14.27
2023-03-30T04:50:47.283Z,9.80
2023-03-30T04:53:08.456Z,12.03
2023-03-30T04:55:29.756Z,9.83
2023-03-30T04:57:51.441Z,9.67
2023-03-30T05:00:15.143Z,10.73
2023-03-30T05:02:36.990Z,9.27
2023-03-30T05:04:58.160Z,11.10
2023-03-30T05:07:19.701Z,14.90
2023-03-30T05:09:41.548Z,13.80
2023-03-30T05:12:04.692Z,10.57
2023-03-30T05:14:26.134Z,15.77
2023-03-30T05:16:48.559Z,7.87
2023-03-30T05:19:09.557Z,13.03
2023-03-30T05:21:31.629Z,14.57
2023-03-30T05:23:52.874Z,9.47
2023-03-30T05:26:13.886Z,13.53
2023-03-30T05:28:35.073Z,9.47
2023-03-30T05:30:56.795Z,13.00
2023-03-30T05:33:19.498Z,15.90
2023-03-30T05:35:41.289Z,24.17
2023-03-30T05:38:02.863Z,19.00
2023-03-30T05:40:24.260Z,17.83
2023-03-30T05:42:45.556Z,18.13
2023-03-30T05:45:08.019Z,27.40
2023-03-30T05:47:29.646Z,14.93
2023-03-30T05:49:52.449Z,13.47
2023-03-30T05:52:13.637Z,15.87
2023-03-30T05:54:34.987Z,13.03
2023-03-30T05:56:56.298Z,12.87
2023-03-30T05:59:17.589Z,14.23
2023-03-30T06:01:38.929Z,9.47
2023-03-30T06:04:00.764Z,14.27
2023-03-30T06:06:23.387Z,21.37
2023-03-30T06:08:44.832Z,22.53
2023-03-30T06:11:06.908Z,19.53
2023-03-30T06:13:28.105Z,15.53
2023-03-30T06:15:49.658Z,27.80
2023-03-30T06:18:10.750Z,19.80
2023-03-30T06:20:32.953Z,18.70
2023-03-30T06:22:55.561Z,10.73
2023-03-30T06:25:17.313Z,16.43
2023-03-30T06:27:38.230Z,12.80
2023-03-30T06:29:59.625Z,11.80
2023-03-30T06:32:20.868Z,15.53
2023-03-30T06:34:42.368Z,13.97
2023-03-30T06:37:03.417Z,14.47
2023-03-30T06:39:26.376Z,14.77
2023-03-30T06:41:47.466Z,12.63
2023-03-30T06:44:10.405Z,17.03
2023-03-30T06:46:31.763Z,13.37
2023-03-30T06:48:53.258Z,18.30
2023-03-30T06:51:14.771Z,13.27
2023-03-30T06:53:35.857Z,13.90
2023-03-30T06:55:59.648Z,14.20
2023-03-30T06:58:20.733Z,17.53
2023-03-30T07:00:42.042Z,17.30
2023-03-30T07:03:04.144Z,18.47
2023-03-30T07:05:25.769Z,14.93
2023-03-30T07:07:47.693Z,19.60
2023-03-30T07:10:11.065Z,13.17
2023-03-30T07:12:33.506Z,15.90
2023-03-30T07:14:55.208Z,16.20
2023-03-30T07:17:16.490Z,16.90
2023-03-30T07:19:37.645Z,14.93
2023-03-30T07:21:58.868Z,15.43
2023-03-30T07:24:21.330Z,12.87
2023-03-30T07:26:42.277Z,15.20
2023-03-30T07:29:05.525Z,17.30
2023-03-30T07:31:27.486Z,18.93
2023-03-30T07:33:48.380Z,12.93
2023-03-30T07:36:10.035Z,13.50
2023-03-30T07:38:30.984Z,17.73
2023-03-30T07:40:52.286Z,19.20
2023-03-30T07:43:13.627Z,15.23
2023-03-30T07:45:36.475Z,18.37
2023-03-30T07:47:57.519Z,18.50
2023-03-30T07:50:19.090Z,16.80
2023-03-30T07:52:40.296Z,17.13
2023-03-30T07:55:01.560Z,14.83
2023-03-30T07:57:22.980Z,17.77
2023-03-30T07:59:44.385Z,19.17
2023-03-30T08:02:07.824Z,14.33
2023-03-30T08:04:29.117Z,16.57
2023-03-30T08:06:52.769Z,24.77
2023-03-30T08:09:14.004Z,20.43
2023-03-30T08:11:36.017Z,11.47
2023-03-30T08:13:57.320Z,12.37
2023-03-30T08:16:18.500Z,14.07
2023-03-30T08:18:42.367Z,12.23
2023-03-30T08:21:04.517Z,13.57
2023-03-30T08:23:26.359Z,13.87
2023-03-30T08:25:51.318Z,10.77
2023-03-30T08:28:12.716Z,13.33
2023-03-30T08:30:34.379Z,15.43
2023-03-30T08:32:55.419Z,14.93
2023-03-30T08:35:18.190Z,11.53
2023-03-30T08:37:39.349Z,14.53
2023-03-30T08:40:00.657Z,13.50
2023-03-30T08:42:48.065Z,14.73
2023-03-30T08:45:10.660Z,11.97
2023-03-30T08:47:33.607Z,10.57
2023-03-30T08:49:59.290Z,10.33
2023-03-30T08:52:23.635Z,8.87
2023-03-30T08:54:44.788Z,8.23
2023-03-30T08:57:12.018Z,10.40
2023-03-30T08:59:36.332Z,8.10
2023-03-30T09:01:59.294Z,8.97
2023-03-30T09:04:24.867Z,10.53
2023-03-30T09:06:49.044Z,8.50
2023-03-30T09:09:13.117Z,11.97
2023-03-30T09:11:35.918Z,10.07
2023-03-30T09:13:59.324Z,9.17
2023-03-30T09:16:22.613Z,9.57
2023-03-30T09:18:46.137Z,7.70
2023-03-30T09:21:07.768Z,9.07
2023-03-30T09:23:31.075Z,9.50
2023-03-30T09:25:59.942Z,12.40
2023-03-30T09:28:26.099Z,17.00
2023-03-30T09:30:49.402Z,15.13
2023-03-30T09:33:21.865Z,9.27
2023-03-30T09:35:44.994Z,16.77
2023-03-30T09:38:06.367Z,16.07
2023-03-30T09:40:33.621Z,14.53
2023-03-30T09:42:59.260Z,24.80
2023-03-30T09:45:22.907Z,10.40
2023-03-30T09:47:44.371Z,10.43
2023-03-30T09:50:06.537Z,8.37
2023-03-30T09:52:28.230Z,13.17
2023-03-30T09:54:49.284Z,6.93
2023-03-30T09:57:24.263Z,11.30
2023-03-30T09:59:47.046Z,5.80
2023-03-30T10:02:18.181Z,6.20
2023-03-30T10:04:57.034Z,10.37
2023-03-30T10:07:22.334Z,8.87
2023-03-30T10:09:44.603Z,8.80
2023-03-30T10:12:06.503Z,6.53
2023-03-30T10:14:30.294Z,6.57
2023-03-30T10:16:52.638Z,9.03
2023-03-30T10:19:17.863Z,5.47
2023-03-30T10:21:40.462Z,7.53
2023-03-30T10:24:08.168Z,4.93
2023-03-30T10:26:31.838Z,4.30
2023-03-30T10:28:53.995Z,7.37
2023-03-30T10:31:16.293Z,5.50
2023-03-30T10:33:43.306Z,6.60
2023-03-30T10:36:05.962Z,5.17
2023-03-30T10:38:31.241Z,4.87
2023-03-30T10:40:58.841Z,5.67
2023-03-30T10:43:22.144Z,11.17
2023-03-30T10:45:46.189Z,8.03
2023-03-30T10:48:15.052Z,6.00
2023-03-30T10:50:43.615Z,6.73
2023-03-30T10:53:11.147Z,6.83
2023-03-30T10:55:35.866Z,7.53
2023-03-30T10:58:02.436Z,6.30
2023-03-30T11:00:32.617Z,7.20
2023-03-30T11:02:58.098Z,7.17
2023-03-30T11:05:21.801Z,7.00
2023-03-30T11:07:46.349Z,5.60
2023-03-30T11:10:13.262Z,10.07
2023-03-30T11:12:36.656Z,6.93
2023-03-30T11:15:00.893Z,6.70
2023-03-30T11:17:24.799Z,5.10
2023-03-30T11:19:48.025Z,6.90
2023-03-30T11:22:11.548Z,6.57
2023-03-30T11:24:35.552Z,7.03
2023-03-30T11:27:00.294Z,7.17
2023-03-30T11:29:32.201Z,6.03
2023-03-30T11:31:57.576Z,7.53
2023-03-30T11:34:37.020Z,8.70
2023-03-30T11:37:01.273Z,6.10
2023-03-30T11:39:32.082Z,6.17
2023-03-30T11:41:57.527Z,5.87
2023-03-30T11:44:18.922Z,8.37
2023-03-30T11:46:42.172Z,7.57
2023-03-30T11:49:14.316Z,8.87
2023-03-30T11:51:49.655Z,6.07
2023-03-30T11:54:26.987Z,6.33
2023-03-30T11:56:52.288Z,8.03
2023-03-30T11:59:18.378Z,8.40
2023-03-30T12:01:50.229Z,7.37
2023-03-30T12:04:12.964Z,8.50
2023-03-30T12:06:35.021Z,10.00
2023-03-30T12:09:04.826Z,9.17
2023-03-30T12:11:31.475Z,7.80
2023-03-30T12:13:52.714Z,8.23
2023-03-30T12:16:18.235Z,8.60
2023-03-30T12:18:42.106Z,6.10
2023-03-30T12:21:10.881Z,9.23
2023-03-30T12:23:39.296Z,8.73
2023-03-30T12:26:08.503Z,8.63
2023-03-30T12:28:54.898Z,6.43
2023-03-30T12:31:24.422Z,10.03
2023-03-30T12:33:47.041Z,8.27
2023-03-30T12:36:26.190Z,7.87
2023-03-30T12:38:48.150Z,10.73
2023-03-30T12:41:15.352Z,9.77
2023-03-30T12:43:42.874Z,7.27
2023-03-30T12:46:08.276Z,8.60
2023-03-30T12:48:36.655Z,9.67
2023-03-30T12:51:03.522Z,8.10
2023-03-30T12:53:33.672Z,6.60
2023-03-30T12:56:01.305Z,8.83
2023-03-30T12:58:41.794Z,9.17
2023-03-30T13:01:30.714Z,4.93
2023-03-30T13:03:54.294Z,6.93
2023-03-30T13:06:22.086Z,8.37
2023-03-30T13:08:43.579Z,5.93
2023-03-30T13:11:09.906Z,5.40
2023-03-30T13:13:46.800Z,6.67
2023-03-30T13:16:09.162Z,6.63
2023-03-30T13:18:35.178Z,8.40
2023-03-30T13:21:17.480Z,6.80
2023-03-30T13:23:39.938Z,8.80
2023-03-30T13:26:03.259Z,7.37
2023-03-30T13:28:45.714Z,4.57
2023-03-30T13:31:13.625Z,4.23
2023-03-30T13:33:37.539Z,6.80
2023-03-30T13:36:04.782Z,5.13
2023-03-30T13:38:40.356Z,3.97
2023-03-30T13:41:07.221Z,4.43
2023-03-30T13:43:36.542Z,5.77
2023-03-30T13:46:13.258Z,5.87
2023-03-30T13:48:46.443Z,5.03
2023-03-30T13:51:11.833Z,6.70
2023-03-30T13:53:38.437Z,7.23
2023-03-30T13:56:01.221Z,4.33
2023-03-30T13:58:24.221Z,4.23
2023-03-30T14:00:48.993Z,7.30
2023-03-30T14:03:30.068Z,5.67
2023-03-30T14:05:52.391Z,5.83
2023-03-30T14:08:13.817Z,4.47
2023-03-30T14:10:35.077Z,4.27
2023-03-30T14:12:58.573Z,4.80
2023-03-30T14:15:21.791Z,4.07
2023-03-30T14:17:46.753Z,6.83
2023-03-30T14:20:13.187Z,5.10
2023-03-30T14:22:39.909Z,4.50
2023-03-30T14:25:01.865Z,4.40
2023-03-30T14:27:23.027Z,5.23
2023-03-30T14:29:49.816Z,6.30
2023-03-30T14:32:14.977Z,5.50
2023-03-30T14:34:36.063Z,4.83
2023-03-30T14:37:00.323Z,3.10
2023-03-30T14:39:23.178Z,3.30
2023-03-30T14:41:44.660Z,2.63
2023-03-30T14:44:07.468Z,3.63
2023-03-30T14:46:34.153Z,4.67
2023-03-30T14:48:56.146Z,4.10
2023-03-30T14:51:22.548Z,5.53
2023-03-30T14:53:44.132Z,2.83
2023-03-30T14:56:07.244Z,3.23
2023-03-30T14:58:30.038Z,3.67
2023-03-30T15:00:51.748Z,3.67
2023-03-30T15:03:22.971Z,2.43
2023-03-30T15:05:53.857Z,6.10
2023-03-30T15:08:18.191Z,7.53
2023-03-30T15:10:46.052Z,5.10
2023-03-30T15:13:08.531Z,5.20
2023-03-30T15:15:32.534Z,5.43
2023-03-30T15:17:53.835Z,3.47
2023-03-30T15:20:17.390Z,5.63
2023-03-30T15:22:39.757Z,3.13
2023-03-30T15:25:01.814Z,4.47
2023-03-30T15:27:23.294Z,3.30
2023-03-30T15:29:45.226Z,2.93
2023-03-30T15:32:07.525Z,3.37
2023-03-30T15:34:28.870Z,2.40
2023-03-30T15:36:55.837Z,4.87
2023-03-30T15:39:21.715Z,2.07
2023-03-30T15:41:47.223Z,3.60
2023-03-30T15:44:11.844Z,3.40
2023-03-30T15:46:33.489Z,2.10
2023-03-30T15:48:55.497Z,2.47
2023-03-30T15:51:18.284Z,5.00
2023-03-30T15:53:48.459Z,4.80
2023-03-30T15:56:13.674Z,3.60
2023-03-30T15:58:34.949Z,2.20
2023-03-30T16:00:57.134Z,4.07
2023-03-30T16:03:20.253Z,3.87
2023-03-30T16:05:43.400Z,2.40
2023-03-30T16:08:05.379Z,1.70
2023-03-30T16:10:29.105Z,2.47
2023-03-30T16:12:50.430Z,2.10
2023-03-30T16:15:14.714Z,2.50
2023-03-30T16:17:36.044Z,2.47
2023-03-30T16:19:57.110Z,3.63
2023-03-30T16:22:18.662Z,2.40
2023-03-30T16:24:40.932Z,3.17
2023-03-30T16:27:04.235Z,1.93
2023-03-30T16:29:25.496Z,4.37
2023-03-30T16:31:46.531Z,2.47
2023-03-30T16:34:07.406Z,1.93
2023-03-30T16:36:29.408Z,2.27
2023-03-30T16:38:50.395Z,4.33
2023-03-30T16:41:12.609Z,2.63
2023-03-30T16:43:35.314Z,2.53
2023-03-30T16:45:57.095Z,2.37
2023-03-30T16:48:18.255Z,2.13
2023-03-30T16:50:40.921Z,3.00
2023-03-30T16:53:02.275Z,3.00
2023-03-30T16:55:23.461Z,2.67
2023-03-30T16:57:44.886Z,1.90
2023-03-30T17:00:14.213Z,2.83
2023-03-30T17:02:35.812Z,2.60
2023-03-30T17:04:57.169Z,2.07
2023-03-30T17:07:18.442Z,1.83
2023-03-30T17:09:40.107Z,3.83
2023-03-30T17:12:01.251Z,1.37
2023-03-30T17:14:23.467Z,1.67
2023-03-30T17:16:46.255Z,2.10
2023-03-30T17:19:11.359Z,1.63
2023-03-30T17:21:32.523Z,2.27
2023-03-30T17:23:53.584Z,1.83
2023-03-30T17:26:14.851Z,2.23
2023-03-30T17:28:38.298Z,3.07
2023-03-30T17:31:00.197Z,1.97
2023-03-30T17:33:23.071Z,4.23
2023-03-30T17:35:45.568Z,2.37
2023-03-30T17:38:08.767Z,2.30
2023-03-30T17:40:30.844Z,3.90
2023-03-30T17:42:52.157Z,2.77
2023-03-30T17:45:14.061Z,2.63
2023-03-30T17:47:35.042Z,2.47
2023-03-30T17:49:57.595Z,3.70
2023-03-30T17:52:18.720Z,2.63
2023-03-30T17:54:42.547Z,2.30
2023-03-30T17:57:04.461Z,2.23
2023-03-30T17:59:25.477Z,9.10
2023-03-30T18:01:46.680Z,3.37
2023-03-30T18:04:08.871Z,4.03
2023-03-30T18:06:32.535Z,2.33
2023-03-30T18:08:54.057Z,3.10
2023-03-30T18:11:15.364Z,11.00
2023-03-30T18:13:36.950Z,6.13
2023-03-30T18:15:59.402Z,4.03
2023-03-30T18:18:24.750Z,2.83
2023-03-30T18:20:46.430Z,3.37
2023-03-30T18:23:10.058Z,3.23
2023-03-30T18:25:32.957Z,3.83
2023-03-30T18:27:55.875Z,3.20
2023-03-30T18:30:24.695Z,3.87
2023-03-30T18:32:47.328Z,5.07
2023-03-30T18:35:09.429Z,6.33
2023-03-30T18:37:31.045Z,4.63
2023-03-30T18:39:53.786Z,3.93
2023-03-30T18:42:15.139Z,3.87
2023-03-30T18:44:36.848Z,3.70
2023-03-30T18:46:58.015Z,5.87
2023-03-30T18:49:20.778Z,3.37
2023-03-30T18:51:42.139Z,2.43
2023-03-30T18:54:03.443Z,2.50
2023-03-30T18:56:27.238Z,3.43
2023-03-30T18:58:48.606Z,8.43
2023-03-30T19:01:12.624Z,3.77
2023-03-30T19:03:34.296Z,3.53
2023-03-30T19:05:55.990Z,2.77
2023-03-30T19:08:18.896Z,4.80
2023-03-30T19:10:41.741Z,2.33
2023-03-30T19:13:04.545Z,3.23
2023-03-30T19:15:26.910Z,5.43
2023-03-30T19:17:48.406Z,5.87
2023-03-30T19:20:10.085Z,2.67
2023-03-30T19:22:31.418Z,4.43
2023-03-30T19:24:52.918Z,3.37
2023-03-30T19:27:14.147Z,3.03
2023-03-30T19:29:36.790Z,5.13
2023-03-30T19:31:58.772Z,3.33
2023-03-30T19:34:20.029Z,4.07
2023-03-30T19:36:41.198Z,2.50
2023-03-30T19:39:02.978Z,4.00
2023-03-30T19:41:24.145Z,3.83
2023-03-30T19:43:45.641Z,3.90
2023-03-30T19:46:08.696Z,6.97
2023-03-30T19:48:30.336Z,11.33
2023-03-30T19:50:51.529Z,11.87
2023-03-30T19:53:12.815Z,4.80
2023-03-30T19:55:34.003Z,4.97
2023-03-30T19:57:55.359Z,3.83
2023-03-30T20:00:17.532Z,5.03
2023-03-30T20:02:40.201Z,5.27
2023-03-30T20:05:03.269Z,5.03
2023-03-30T20:07:24.544Z,6.13
2023-03-30T20:09:45.645Z,3.87
2023-03-30T20:12:07.142Z,3.83
2023-03-30T20:14:28.383Z,5.07
2023-03-30T20:16:49.946Z,3.63
2023-03-30T20:19:28.453Z,4.97
2023-03-30T20:21:51.521Z,5.20
2023-03-30T20:24:12.973Z,6.27
2023-03-30T20:26:34.416Z,3.73
2023-03-30T20:28:59.078Z,5.97
2023-03-30T20:31:20.379Z,5.80
2023-03-30T20:33:41.645Z,4.20
2023-03-30T20:36:04.740Z,5.27
2023-03-30T20:38:26.093Z,4.50
2023-03-30T20:40:55.841Z,4.63
2023-03-30T20:43:17.174Z,4.93
2023-03-30T20:45:46.012Z,6.13
2023-03-30T20:48:26.612Z,6.63
2023-03-30T20:50:47.957Z,4.93
2023-03-30T20:53:10.842Z,4.47
2023-03-30T20:55:31.849Z,5.97
2023-03-30T20:57:52.993Z,4.37
2023-03-30T21:00:15.622Z,5.90
2023-03-30T21:02:36.932Z,3.77
2023-03-30T21:04:57.966Z,3.60
2023-03-30T21:07:19.337Z,6.50
2023-03-30T21:09:42.052Z,5.23
2023-03-30T21:12:03.053Z,7.73
2023-03-30T21:14:24.878Z,5.13
2023-03-30T21:16:46.453Z,6.90
2023-03-30T21:19:07.974Z,6.70
2023-03-30T21:21:29.584Z,5.27
2023-03-30T21:23:51.055Z,5.03
2023-03-30T21:26:14.160Z,5.67
2023-03-30T21:28:35.553Z,4.00
2023-03-30T21:30:57.067Z,5.43
2023-03-30T21:33:18.397Z,5.37
2023-03-30T21:35:39.796Z,7.47
2023-03-30T21:38:01.581Z,6.23
2023-03-30T21:40:24.293Z,4.60
2023-03-30T21:42:46.763Z,5.50
2023-03-30T21:45:10.641Z,7.00
2023-03-30T21:47:31.890Z,5.97
2023-03-30T21:49:53.327Z,5.60
2023-03-30T21:52:14.524Z,4.03
2023-03-30T21:54:35.988Z,6.60
2023-03-30T21:56:57.366Z,5.70
2023-03-30T21:59:20.242Z,3.97
2023-03-30T22:01:42.281Z,7.13
2023-03-30T22:04:06.069Z,5.57
2023-03-30T22:06:28.469Z,6.83
2023-03-30T22:08:49.966Z,6.03
2023-03-30T22:11:12.837Z,5.37
2023-03-30T22:13:34.530Z,4.90
2023-03-30T22:15:57.676Z,5.10
2023-03-30T22:18:18.620Z,5.73
2023-03-30T22:20:41.249Z,6.03
2023-03-30T22:23:02.116Z,4.27
2023-03-30T22:25:23.430Z,4.63
2023-03-30T22:27:45.733Z,3.30
2023-03-30T22:30:08.259Z,5.13
2023-03-30T22:32:32.361Z,5.43
2023-03-30T22:34:54.155Z,4.70
2023-03-30T22:37:16.137Z,4.90
2023-03-30T22:39:39.049Z,4.80
2023-03-30T22:42:00.193Z,3.83
2023-03-30T22:44:21.806Z,6.03
2023-03-30T22:46:42.938Z,6.87
2023-03-30T22:49:05.630Z,4.47
2023-03-30T22:51:27.177Z,6.30
2023-03-30T22:53:48.565Z,4.73
2023-03-30T22:56:09.962Z,6.13
2023-03-30T22:58:31.253Z,4.23
2023-03-30T23:00:52.260Z,3.23
2023-03-30T23:03:13.489Z,5.83
2023-03-30T23:05:36.038Z,5.00
2023-03-30T23:07:57.249Z,3.07
2023-03-30T23:10:20.238Z,6.00
2023-03-30T23:12:41.829Z,5.00
2023-03-30T23:15:03.349Z,4.80
2023-03-30T23:17:26.102Z,4.37
2023-03-30T23:19:47.153Z,5.07
2023-03-30T23:22:09.740Z,4.80
2023-03-30T23:24:32.107Z,6.73
2023-03-30T23:26:53.279Z,4.37
2023-03-30T23:29:14.533Z,3.57
2023-03-30T23:31:35.932Z,3.47
2023-03-30T23:33:57.553Z,6.43
2023-03-30T23:36:19.233Z,5.47
2023-03-30T23:38:42.029Z,3.50
2023-03-30T23:41:03.469Z,3.90
2023-03-30T23:43:25.111Z,3.10
2023-03-30T23:45:46.403Z,4.00
2023-03-30T23:48:07.697Z,5.63
2023-03-30T23:50:29.199Z,5.30
2023-03-30T23:52:50.979Z,4.07
2023-03-30T23:55:13.222Z,4.83
2023-03-30T23:57:34.633Z,5.63
2023-03-30T23:59:56.046Z,4.50
